createdAt,value
2022-07-29T00:00:50.497Z,16.84
2022-07-29T00:03:17.082Z,16.78
2022-07-29T00:05:43.651Z,16.72
2022-07-29T00:08:12.515Z,16.68
2022-07-29T00:10:39.705Z,16.64
2022-07-29T00:13:06.454Z,16.58
2022-07-29T00:15:32.969Z,16.53
2022-07-29T00:17:59.546Z,16.51
2022-07-29T00:20:26.147Z,16.51
2022-07-29T00:22:53.013Z,16.47
2022-07-29T00:25:20.346Z,16.44
2022-07-29T00:27:47.240Z,16.36
2022-07-29T00:30:13.911Z,16.33
2022-07-29T00:32:40.512Z,16.35
2022-07-29T00:35:37.105Z,16.37
2022-07-29T00:38:03.653Z,16.33
2022-07-29T00:40:30.245Z,16.31
2022-07-29T00:42:56.765Z,16.28
2022-07-29T00:45:23.531Z,16.27
2022-07-29T00:47:50.329Z,16.20
2022-07-29T00:50:17.951Z,16.18
2022-07-29T00:52:44.961Z,16.16
2022-07-29T00:55:15.156Z,16.14
2022-07-29T00:57:43.678Z,16.09
2022-07-29T01:00:13.862Z,16.03
2022-07-29T01:02:40.516Z,16.00
2022-07-29T01:05:08.391Z,15.96
2022-07-29T01:07:37.072Z,15.93
2022-07-29T01:10:05.793Z,15.95
2022-07-29T01:12:34.776Z,15.89
2022-07-29T01:15:03.602Z,15.85
2022-07-29T01:17:37.991Z,15.82
2022-07-29T01:20:35.877Z,15.76
2022-07-29T01:23:28.492Z,15.71
2022-07-29T01:26:34.120Z,15.65
2022-07-29T01:29:14.296Z,15.60
2022-07-29T01:32:00.856Z,15.57
2022-07-29T01:34:41.853Z,15.54
2022-07-29T01:37:25.412Z,15.47
2022-07-29T01:39:55.305Z,15.46
2022-07-29T01:42:33.185Z,15.46
2022-07-29T01:45:18.129Z,15.47
2022-07-29T01:47:52.309Z,15.45
2022-07-29T01:50:22.347Z,15.43
2022-07-29T01:52:59.560Z,15.41
2022-07-29T01:55:32.125Z,15.41
2022-07-29T01:58:01.917Z,15.38
2022-07-29T02:00:29.360Z,15.35
2022-07-29T02:02:57.899Z,15.35
2022-07-29T02:05:28.498Z,15.37
2022-07-29T02:07:58.950Z,15.34
2022-07-29T02:10:32.403Z,15.32
2022-07-29T02:13:00.370Z,15.31
2022-07-29T02:15:29.787Z,15.30
2022-07-29T02:18:01.008Z,15.26
2022-07-29T02:20:29.082Z,15.26
2022-07-29T02:22:58.198Z,15.23
2022-07-29T02:25:25.403Z,15.19
2022-07-29T02:28:05.097Z,15.17
2022-07-29T02:30:32.879Z,15.15
2022-07-29T02:33:00.475Z,15.13
2022-07-29T02:35:27.630Z,15.08
2022-07-29T02:38:20.729Z,15.05
2022-07-29T02:40:48.166Z,15.06
2022-07-29T02:43:15.193Z,15.02
2022-07-29T02:45:43.008Z,15.01
2022-07-29T02:48:16.158Z,14.98
2022-07-29T02:50:52.742Z,14.93
2022-07-29T02:53:23.459Z,14.87
2022-07-29T02:55:56.457Z,14.83
2022-07-29T02:58:29.544Z,14.80
2022-07-29T03:01:21.635Z,14.75
2022-07-29T03:03:50.687Z,14.75
2022-07-29T03:06:28.124Z,14.73
2022-07-29T03:09:06.735Z,14.71
2022-07-29T03:11:41.514Z,14.67
2022-07-29T03:14:17.820Z,14.63
2022-07-29T03:16:44.761Z,14.58
2022-07-29T03:19:11.949Z,14.62
2022-07-29T03:21:38.487Z,14.58
2022-07-29T03:24:09.904Z,14.57
2022-07-29T03:26:37.232Z,14.53
2022-07-29T03:29:03.975Z,14.51
2022-07-29T03:31:30.654Z,14.47
2022-07-29T03:33:58.482Z,14.47
2022-07-29T03:36:25.815Z,14.50
2022-07-29T03:38:53.173Z,14.50
2022-07-29T03:41:22.569Z,14.52
2022-07-29T03:43:52.381Z,14.51
2022-07-29T03:46:22.014Z,14.52
2022-07-29T03:48:51.676Z,14.51
2022-07-29T03:51:18.443Z,14.50
2022-07-29T03:54:00.514Z,14.49
2022-07-29T03:56:29.036Z,14.52
2022-07-29T03:58:56.567Z,14.57
2022-07-29T04:01:23.839Z,14.58
2022-07-29T04:03:50.684Z,14.60
2022-07-29T04:06:17.314Z,14.63
2022-07-29T04:08:43.890Z,14.65
2022-07-29T04:11:10.589Z,14.65
2022-07-29T04:13:37.098Z,14.66
2022-07-29T04:16:03.870Z,14.71
2022-07-29T04:18:30.441Z,14.74
2022-07-29T04:20:57.041Z,14.78
2022-07-29T04:23:23.582Z,14.83
2022-07-29T04:25:50.250Z,14.87
2022-07-29T04:28:17.083Z,14.91
2022-07-29T04:30:43.914Z,14.95
2022-07-29T04:33:10.537Z,14.99
2022-07-29T04:35:43.645Z,15.03
2022-07-29T04:38:17.345Z,15.09
2022-07-29T04:40:44.097Z,15.11
2022-07-29T04:43:10.631Z,15.15
2022-07-29T04:45:39.135Z,15.19
2022-07-29T04:48:06.090Z,15.20
2022-07-29T04:50:32.875Z,15.25
2022-07-29T04:52:59.448Z,15.33
2022-07-29T04:55:26.445Z,15.40
2022-07-29T04:57:52.980Z,15.46
2022-07-29T05:00:19.562Z,15.51
2022-07-29T05:02:46.194Z,15.58
2022-07-29T05:05:12.775Z,15.63
2022-07-29T05:07:41.964Z,15.67
2022-07-29T05:10:09.630Z,15.73
2022-07-29T05:12:36.628Z,15.77
2022-07-29T05:15:03.337Z,15.83
2022-07-29T05:17:30.034Z,15.89
2022-07-29T05:19:56.649Z,15.94
2022-07-29T05:22:23.237Z,15.99
2022-07-29T05:24:49.762Z,16.05
2022-07-29T05:27:16.328Z,16.13
2022-07-29T05:29:45.622Z,16.17
2022-07-29T05:32:13.628Z,16.24
2022-07-29T05:34:51.109Z,16.31
2022-07-29T05:37:20.536Z,16.38
2022-07-29T05:39:49.126Z,16.45
2022-07-29T05:42:17.536Z,16.52
2022-07-29T05:44:44.144Z,16.58
2022-07-29T05:47:10.724Z,16.64
2022-07-29T05:49:37.420Z,16.69
2022-07-29T05:52:04.415Z,16.74
2022-07-29T05:54:30.968Z,16.79
2022-07-29T05:56:57.577Z,16.85
2022-07-29T05:59:29.826Z,16.93
2022-07-29T06:01:58.143Z,17.02
2022-07-29T06:04:25.065Z,17.09
2022-07-29T06:06:51.684Z,17.19
2022-07-29T06:09:18.235Z,17.30
2022-07-29T06:11:44.822Z,17.37
2022-07-29T06:14:11.546Z,17.47
2022-07-29T06:16:38.122Z,17.60
2022-07-29T06:19:05.393Z,17.69
2022-07-29T06:21:32.094Z,17.79
2022-07-29T06:23:58.702Z,17.87
2022-07-29T06:26:30.360Z,17.92
2022-07-29T06:28:58.145Z,18.03
2022-07-29T06:31:24.753Z,18.12
2022-07-29T06:33:51.433Z,18.16
2022-07-29T06:36:21.273Z,18.31
2022-07-29T06:38:51.347Z,18.41
2022-07-29T06:41:19.119Z,18.45
2022-07-29T06:43:51.796Z,18.55
2022-07-29T06:46:21.938Z,18.80
2022-07-29T06:48:49.007Z,19.06
2022-07-29T06:51:15.934Z,19.25
2022-07-29T06:54:01.603Z,19.32
2022-07-29T06:56:31.687Z,19.35
2022-07-29T06:58:58.474Z,19.38
2022-07-29T07:01:25.060Z,19.46
2022-07-29T07:03:51.665Z,19.51
2022-07-29T07:06:18.247Z,19.60
2022-07-29T07:08:44.802Z,19.65
2022-07-29T07:11:11.386Z,19.75
2022-07-29T07:13:37.936Z,19.91
2022-07-29T07:16:05.344Z,20.10
2022-07-29T07:18:32.106Z,20.26
2022-07-29T07:20:59.302Z,20.31
2022-07-29T07:23:25.918Z,20.31
2022-07-29T07:25:52.515Z,20.32
2022-07-29T07:28:19.590Z,20.36
2022-07-29T07:30:52.196Z,20.42
2022-07-29T07:33:19.011Z,20.43
2022-07-29T07:35:45.647Z,20.47
2022-07-29T07:38:12.516Z,20.51
2022-07-29T07:40:39.104Z,20.55
2022-07-29T07:43:05.628Z,20.61
2022-07-29T07:45:34.030Z,20.71
2022-07-29T07:48:00.969Z,20.80
2022-07-29T07:50:27.777Z,20.83
2022-07-29T07:52:58.814Z,20.86
2022-07-29T07:55:26.648Z,20.90
2022-07-29T07:57:54.567Z,20.97
2022-07-29T08:00:22.922Z,21.04
2022-07-29T08:02:51.335Z,21.12
2022-07-29T08:05:19.011Z,21.22
2022-07-29T08:07:48.565Z,21.46
2022-07-29T08:10:36.879Z,21.61
2022-07-29T08:13:05.848Z,21.74
2022-07-29T08:15:32.331Z,21.77
2022-07-29T08:17:59.386Z,21.91
2022-07-29T08:20:26.339Z,22.04
2022-07-29T08:22:53.744Z,22.08
2022-07-29T08:25:21.649Z,22.09
2022-07-29T08:27:48.728Z,22.14
2022-07-29T08:30:15.505Z,22.21
2022-07-29T08:32:57.945Z,22.37
2022-07-29T08:35:25.531Z,22.54
2022-07-29T08:37:53.400Z,22.63
2022-07-29T08:40:32.412Z,22.79
2022-07-29T08:42:59.916Z,22.97
2022-07-29T08:45:27.195Z,23.05
2022-07-29T08:47:53.852Z,23.18
2022-07-29T08:50:20.417Z,23.30
2022-07-29T08:52:49.573Z,23.40
2022-07-29T08:55:16.725Z,23.48
2022-07-29T08:57:51.116Z,23.61
2022-07-29T09:00:25.717Z,23.61
2022-07-29T09:02:59.741Z,23.63
2022-07-29T09:05:27.586Z,23.67
2022-07-29T09:07:54.764Z,23.72
2022-07-29T09:10:21.890Z,23.81
2022-07-29T09:12:49.810Z,23.87
2022-07-29T09:15:16.412Z,24.00
2022-07-29T09:17:50.286Z,24.05
2022-07-29T09:20:19.648Z,24.07
2022-07-29T09:22:54.420Z,24.16
2022-07-29T09:25:37.499Z,24.19
2022-07-29T09:28:09.408Z,24.27
2022-07-29T09:30:36.686Z,24.39
2022-07-29T09:33:04.445Z,24.45
2022-07-29T09:35:31.928Z,24.45
2022-07-29T09:37:58.549Z,24.55
2022-07-29T09:40:27.881Z,24.64
2022-07-29T09:42:58.138Z,24.74
2022-07-29T09:45:32.839Z,24.75
2022-07-29T09:48:01.497Z,24.84
2022-07-29T09:50:39.178Z,24.90
2022-07-29T09:53:05.894Z,24.90
2022-07-29T09:55:32.775Z,24.98
2022-07-29T09:58:18.456Z,25.10
2022-07-29T10:00:46.775Z,25.18
2022-07-29T10:03:15.094Z,25.24
2022-07-29T10:05:43.100Z,25.33
2022-07-29T10:08:11.111Z,25.37
2022-07-29T10:10:40.527Z,25.37
2022-07-29T10:13:13.546Z,25.46
2022-07-29T10:15:46.098Z,25.47
2022-07-29T10:18:14.572Z,25.54
2022-07-29T10:20:41.393Z,25.58
2022-07-29T10:23:08.240Z,25.59
2022-07-29T10:25:34.833Z,25.60
2022-07-29T10:28:01.576Z,25.65
2022-07-29T10:30:28.560Z,25.76
2022-07-29T10:32:57.762Z,25.81
2022-07-29T10:36:04.857Z,25.73
2022-07-29T10:38:50.068Z,25.67
2022-07-29T10:41:29.006Z,25.61
2022-07-29T10:44:05.520Z,25.57
2022-07-29T10:46:38.657Z,25.52
2022-07-29T10:49:15.486Z,25.49
2022-07-29T10:51:51.484Z,25.47
2022-07-29T10:54:19.225Z,25.52
2022-07-29T10:56:46.811Z,25.62
2022-07-29T10:59:21.663Z,25.68
2022-07-29T11:01:53.754Z,25.74
2022-07-29T11:07:46.207Z,25.76
2022-07-29T11:10:16.236Z,25.78
2022-07-29T11:12:42.884Z,25.82
2022-07-29T11:15:21.759Z,25.95
2022-07-29T11:17:54.673Z,26.10
2022-07-29T11:20:51.013Z,26.23
2022-07-29T11:23:44.526Z,26.42
2022-07-29T11:26:13.377Z,26.47
2022-07-29T11:28:51.128Z,26.52
2022-07-29T11:31:36.107Z,26.54
2022-07-29T11:34:18.856Z,26.57
2022-07-29T11:37:06.257Z,26.62
2022-07-29T11:39:36.245Z,26.70
2022-07-29T11:42:28.242Z,26.71
2022-07-29T11:45:40.375Z,26.73
2022-07-29T11:47:56.340Z,26.76
2022-07-29T11:50:33.711Z,26.85
2022-07-29T11:53:04.186Z,26.86
2022-07-29T11:55:50.772Z,26.81
2022-07-29T11:58:25.066Z,26.68
2022-07-29T12:00:53.144Z,26.68
2022-07-29T12:03:33.349Z,26.72
2022-07-29T12:06:02.625Z,26.74
2022-07-29T12:08:29.182Z,26.69
2022-07-29T12:10:55.901Z,26.55
2022-07-29T12:13:23.050Z,26.40
2022-07-29T12:16:04.984Z,26.28
2022-07-29T12:18:32.630Z,26.26
2022-07-29T12:21:06.096Z,26.29
2022-07-29T12:23:34.937Z,26.19
2022-07-29T12:26:07.205Z,26.10
2022-07-29T12:28:39.999Z,26.09
2022-07-29T12:31:08.175Z,26.05
2022-07-29T12:33:36.106Z,26.01
2022-07-29T12:36:06.809Z,26.11
2022-07-29T12:38:35.880Z,26.15
2022-07-29T12:41:04.307Z,26.09
2022-07-29T12:43:31.623Z,26.11
2022-07-29T12:46:12.086Z,26.23
2022-07-29T12:48:41.445Z,26.32
2022-07-29T12:51:10.071Z,26.38
2022-07-29T12:53:38.181Z,26.43
2022-07-29T12:56:20.682Z,26.50
2022-07-29T12:58:52.753Z,26.41
2022-07-29T13:01:21.140Z,26.43
2022-07-29T13:04:03.888Z,26.41
2022-07-29T13:06:34.979Z,26.46
2022-07-29T13:09:12.712Z,26.47
2022-07-29T13:11:47.947Z,26.48
2022-07-29T13:14:36.784Z,26.48
2022-07-29T13:17:15.017Z,26.47
2022-07-29T13:19:52.983Z,26.42
2022-07-29T13:22:25.067Z,26.41
2022-07-29T13:24:56.991Z,26.39
2022-07-29T13:27:28.565Z,26.37
2022-07-29T13:29:58.356Z,26.33
2022-07-29T13:32:28.336Z,26.31
2022-07-29T13:34:57.108Z,26.31
2022-07-29T13:37:23.730Z,26.32
2022-07-29T13:39:52.934Z,26.36
2022-07-29T13:42:20.097Z,26.50
2022-07-29T13:44:46.682Z,26.70
2022-07-29T13:47:13.746Z,26.89
2022-07-29T13:49:40.351Z,26.94
2022-07-29T13:52:08.396Z,27.00
2022-07-29T13:54:41.973Z,27.03
2022-07-29T13:57:10.410Z,27.10
2022-07-29T13:59:36.955Z,27.17
2022-07-29T14:02:03.867Z,27.26
2022-07-29T14:04:30.508Z,27.35
2022-07-29T14:06:57.097Z,27.36
2022-07-29T14:09:23.911Z,27.41
2022-07-29T14:11:52.270Z,27.47
2022-07-29T14:14:18.852Z,27.44
2022-07-29T14:16:47.850Z,27.43
2022-07-29T14:19:18.573Z,27.49
2022-07-29T14:21:54.400Z,27.58
2022-07-29T14:24:23.929Z,27.68
2022-07-29T14:26:51.822Z,27.77
2022-07-29T14:29:18.451Z,27.65
2022-07-29T14:31:45.049Z,27.65
2022-07-29T14:34:11.699Z,27.66
2022-07-29T14:36:38.211Z,27.72
2022-07-29T14:39:05.170Z,27.76
2022-07-29T14:41:31.742Z,27.70
2022-07-29T14:44:01.513Z,27.57
2022-07-29T14:46:28.903Z,27.42
2022-07-29T14:48:55.791Z,27.38
2022-07-29T14:51:22.404Z,27.33
2022-07-29T14:53:49.014Z,27.24
2022-07-29T14:56:36.064Z,27.20
2022-07-29T14:59:02.064Z,27.19
2022-07-29T15:01:28.899Z,27.19
2022-07-29T15:03:59.530Z,27.17
2022-07-29T15:06:27.221Z,27.14
2022-07-29T15:08:53.895Z,27.07
2022-07-29T15:11:20.422Z,27.04
2022-07-29T15:13:46.948Z,27.01
2022-07-29T15:16:13.547Z,26.99
2022-07-29T15:18:40.210Z,26.97
2022-07-29T15:21:07.976Z,26.95
2022-07-29T15:23:37.282Z,26.95
2022-07-29T15:26:05.149Z,26.95
2022-07-29T15:28:31.740Z,26.91
2022-07-29T15:30:58.361Z,26.89
2022-07-29T15:33:24.980Z,26.86
2022-07-29T15:35:51.624Z,26.79
2022-07-29T15:38:18.661Z,26.74
2022-07-29T15:40:46.588Z,26.69
2022-07-29T15:43:13.582Z,26.65
2022-07-29T15:45:42.378Z,26.63
2022-07-29T15:48:10.233Z,26.62
2022-07-29T15:50:41.395Z,26.63
2022-07-29T15:53:08.010Z,26.63
2022-07-29T15:55:34.540Z,26.62
2022-07-29T15:58:01.056Z,26.58
2022-07-29T16:00:27.771Z,26.54
2022-07-29T16:02:54.288Z,26.46
2022-07-29T16:05:20.828Z,26.40
2022-07-29T16:07:47.397Z,26.29
2022-07-29T16:10:14.019Z,26.07
2022-07-29T16:12:40.723Z,25.67
2022-07-29T16:15:10.474Z,25.31
2022-07-29T16:17:38.157Z,24.98
2022-07-29T16:20:06.359Z,24.79
2022-07-29T16:22:32.937Z,24.59
2022-07-29T16:37:43.363Z,24.11
2022-07-29T16:40:11.669Z,23.56
2022-07-29T16:42:47.246Z,22.84
2022-07-29T16:45:15.510Z,22.51
2022-07-29T16:47:42.310Z,22.50
2022-07-29T16:50:09.219Z,22.50
2022-07-29T16:52:37.572Z,22.46
2022-07-29T16:55:04.750Z,22.24
2022-07-29T16:57:31.306Z,22.23
2022-07-29T16:59:57.877Z,22.15
2022-07-29T17:02:24.876Z,22.12
2022-07-29T17:04:51.992Z,22.00
2022-07-29T17:07:19.103Z,21.97
2022-07-29T17:09:45.660Z,21.96
2022-07-29T17:12:12.186Z,21.93
2022-07-29T17:14:38.811Z,21.94
2022-07-29T17:17:15.705Z,21.96
2022-07-29T17:19:47.296Z,21.92
2022-07-29T17:22:19.066Z,21.89
2022-07-29T17:24:47.271Z,21.85
2022-07-29T17:27:14.207Z,21.79
2022-07-29T17:29:40.902Z,21.71
2022-07-29T17:32:09.395Z,21.69
2022-07-29T17:34:37.383Z,21.69
2022-07-29T17:37:05.244Z,21.62
2022-07-29T17:39:32.139Z,21.58
2022-07-29T17:41:59.355Z,21.55
2022-07-29T17:44:25.905Z,21.45
2022-07-29T17:46:52.529Z,21.37
2022-07-29T17:49:19.247Z,21.34
2022-07-29T17:51:46.092Z,21.27
2022-07-29T17:54:12.631Z,21.24
2022-07-29T17:56:39.179Z,21.20
2022-07-29T17:59:10.244Z,21.17
2022-07-29T18:01:38.128Z,21.10
2022-07-29T18:04:04.898Z,21.03
2022-07-29T18:06:31.488Z,20.95
2022-07-29T18:08:58.013Z,20.90
2022-07-29T18:11:24.619Z,20.90
2022-07-29T18:13:51.251Z,20.88
2022-07-29T18:16:18.534Z,20.78
2022-07-29T18:18:45.306Z,20.66
2022-07-29T18:21:12.012Z,20.67
2022-07-29T18:23:38.746Z,20.72
2022-07-29T18:26:05.291Z,20.75
2022-07-29T18:28:32.897Z,20.67
2022-07-29T18:31:00.593Z,20.65
2022-07-29T18:33:27.902Z,20.61
2022-07-29T18:36:07.598Z,20.55
2022-07-29T18:38:39.706Z,20.51
2022-07-29T18:41:06.324Z,20.46
2022-07-29T18:43:32.937Z,20.35
2022-07-29T18:45:59.551Z,20.22
2022-07-29T18:48:26.089Z,20.20
2022-07-29T18:50:52.670Z,20.22
2022-07-29T18:53:19.270Z,20.08
2022-07-29T18:55:46.119Z,20.02
2022-07-29T18:58:12.672Z,19.99
2022-07-29T19:00:39.270Z,20.04
2022-07-29T19:03:06.089Z,20.10
2022-07-29T19:05:32.975Z,20.16
2022-07-29T19:07:59.777Z,20.21
2022-07-29T19:10:26.945Z,20.24
2022-07-29T19:12:54.363Z,20.23
2022-07-29T19:15:20.873Z,20.08
2022-07-29T19:17:48.610Z,19.95
2022-07-29T19:20:15.912Z,19.94
2022-07-29T19:22:42.728Z,19.88
2022-07-29T19:25:10.115Z,19.91
2022-07-29T19:27:36.774Z,19.94
2022-07-29T19:30:06.450Z,19.98
2022-07-29T19:32:33.104Z,19.93
2022-07-29T19:35:18.180Z,19.90
2022-07-29T19:37:44.758Z,19.95
2022-07-29T19:40:12.285Z,20.00
2022-07-29T19:42:38.985Z,19.91
2022-07-29T19:45:06.102Z,19.75
2022-07-29T19:47:32.653Z,19.66
2022-07-29T19:50:00.564Z,19.60
2022-07-29T19:52:27.674Z,19.64
2022-07-29T19:54:54.344Z,19.68
2022-07-29T19:57:20.853Z,19.66
2022-07-29T19:59:47.416Z,19.63
2022-07-29T20:02:14.358Z,19.60
2022-07-29T20:04:42.764Z,19.63
2022-07-29T20:07:09.515Z,19.64
2022-07-29T20:09:36.083Z,19.65
2022-07-29T20:12:04.736Z,19.63
2022-07-29T20:14:31.280Z,19.62
2022-07-29T20:16:57.855Z,19.63
2022-07-29T20:19:24.438Z,19.62
2022-07-29T20:21:51.507Z,19.61
2022-07-29T20:24:19.329Z,19.57
2022-07-29T20:26:46.057Z,19.54
2022-07-29T20:29:12.710Z,19.43
2022-07-29T20:31:39.291Z,19.32
2022-07-29T20:34:06.202Z,19.34
2022-07-29T20:36:32.781Z,19.38
2022-07-29T20:39:02.196Z,19.40
2022-07-29T20:41:29.143Z,19.38
2022-07-29T20:43:56.100Z,19.36
2022-07-29T20:46:22.701Z,19.32
2022-07-29T20:48:49.505Z,19.28
2022-07-29T20:51:16.120Z,19.32
2022-07-29T20:53:42.660Z,19.32
2022-07-29T20:56:09.252Z,19.26
2022-07-29T20:58:36.580Z,19.22
2022-07-29T21:01:05.086Z,19.13
2022-07-29T21:03:32.499Z,19.15
2022-07-29T21:06:00.287Z,19.18
2022-07-29T21:08:27.570Z,19.20
2022-07-29T21:10:54.255Z,19.22
2022-07-29T21:13:22.462Z,19.22
2022-07-29T21:15:52.701Z,19.20
2022-07-29T21:18:32.876Z,19.18
2022-07-29T21:21:00.844Z,19.19
2022-07-29T21:23:28.007Z,19.18
2022-07-29T21:25:55.511Z,19.16
2022-07-29T21:28:29.504Z,18.99
2022-07-29T21:30:59.396Z,18.92
2022-07-29T21:33:30.757Z,18.92
2022-07-29T21:38:44.303Z,18.97
2022-07-29T21:41:12.611Z,18.98
2022-07-29T21:43:41.954Z,18.91
2022-07-29T21:46:09.379Z,18.96
2022-07-29T21:48:36.218Z,18.97
2022-07-29T21:51:03.024Z,18.98
2022-07-29T21:53:30.686Z,18.86
2022-07-29T21:55:57.473Z,18.87
2022-07-29T21:58:24.878Z,18.91
2022-07-29T22:00:51.984Z,18.97
2022-07-29T22:03:18.540Z,19.00
2022-07-29T22:05:45.430Z,19.03
2022-07-29T22:08:12.041Z,19.03
2022-07-29T22:10:38.689Z,19.03
2022-07-29T22:13:05.334Z,19.00
2022-07-29T22:15:32.332Z,19.01
2022-07-29T22:17:59.545Z,18.99
2022-07-29T22:20:26.135Z,18.95
2022-07-29T22:22:53.235Z,18.96
2022-07-29T22:25:20.210Z,19.00
2022-07-29T22:27:46.992Z,19.00
2022-07-29T22:30:13.899Z,18.98
2022-07-29T22:32:40.753Z,18.98
2022-07-29T22:35:07.879Z,18.91
2022-07-29T22:37:34.568Z,18.90
2022-07-29T22:40:01.515Z,18.90
2022-07-29T22:42:28.041Z,18.92
2022-07-29T22:44:54.617Z,18.93
2022-07-29T22:47:46.480Z,18.87
2022-07-29T22:50:08.125Z,18.82
2022-07-29T22:52:34.680Z,18.85
2022-07-29T22:55:01.218Z,18.87
2022-07-29T22:57:28.423Z,18.89
2022-07-29T22:59:55.097Z,18.91
2022-07-29T23:02:21.618Z,18.93
2022-07-29T23:04:48.131Z,18.91
2022-07-29T23:07:14.714Z,18.87
2022-07-29T23:09:41.718Z,18.74
2022-07-29T23:12:08.695Z,18.66
2022-07-29T23:14:35.415Z,18.67
2022-07-29T23:17:02.317Z,18.69
2022-07-29T23:19:29.287Z,18.69
2022-07-29T23:21:55.874Z,18.68
2022-07-29T23:24:22.411Z,18.68
2022-07-29T23:26:49.012Z,18.69
2022-07-29T23:29:17.867Z,18.65
2022-07-29T23:31:48.281Z,18.68
2022-07-29T23:34:15.078Z,18.68
2022-07-29T23:36:42.537Z,18.68
2022-07-29T23:39:13.276Z,18.70
2022-07-29T23:41:40.298Z,18.69
2022-07-29T23:44:07.350Z,18.71
2022-07-29T23:46:34.403Z,18.72
2022-07-29T23:49:01.136Z,18.71
2022-07-29T23:51:29.331Z,18.71
2022-07-29T23:53:56.798Z,18.71
2022-07-29T23:56:23.840Z,18.69
2022-07-29T23:58:50.629Z,18.68
